sensor_id;sensor_type;location;lat;lon;timestamp;temperature;humidity
37886;DHT22;23726;52.520;13.434;2022-11-18T00:01:34;21.20;34.90
37886;DHT22;23726;52.520;13.434;2022-11-18T00:04:00;21.20;34.90
37886;DHT22;23726;52.520;13.434;2022-11-18T00:06:27;21.20;34.90
37886;DHT22;23726;52.520;13.434;2022-11-18T00:08:54;21.20;34.90
37886;DHT22;23726;52.520;13.434;2022-11-18T00:11:22;21.20;35.00
37886;DHT22;23726;52.520;13.434;2022-11-18T00:14:12;21.20;34.60
37886;DHT22;23726;52.520;13.434;2022-11-18T00:19:39;21.20;34.80
37886;DHT22;23726;52.520;13.434;2022-11-18T00:22:06;21.20;35.40
37886;DHT22;23726;52.520;13.434;2022-11-18T00:24:36;21.20;34.90
37886;DHT22;23726;52.520;13.434;2022-11-18T00:27:01;21.20;34.80
37886;DHT22;23726;52.520;13.434;2022-11-18T00:29:27;21.20;34.60
37886;DHT22;23726;52.520;13.434;2022-11-18T00:31:54;21.20;34.70
37886;DHT22;23726;52.520;13.434;2022-11-18T00:34:20;21.20;34.60
37886;DHT22;23726;52.520;13.434;2022-11-18T00:36:46;21.20;34.60
37886;DHT22;23726;52.520;13.434;2022-11-18T00:39:14;21.20;34.30
37886;DHT22;23726;52.520;13.434;2022-11-18T00:41:40;21.10;34.60
37886;DHT22;23726;52.520;13.434;2022-11-18T00:44:25;21.20;34.60
37886;DHT22;23726;52.520;13.434;2022-11-18T00:46:50;21.20;34.80
37886;DHT22;23726;52.520;13.434;2022-11-18T00:49:16;21.20;34.70
37886;DHT22;23726;52.520;13.434;2022-11-18T00:51:42;21.20;34.70
37886;DHT22;23726;52.520;13.434;2022-11-18T00:54:08;21.20;34.70
37886;DHT22;23726;52.520;13.434;2022-11-18T00:56:33;21.20;34.70
37886;DHT22;23726;52.520;13.434;2022-11-18T00:58:59;21.20;34.80
37886;DHT22;23726;52.520;13.434;2022-11-18T01:01:25;21.20;34.90
37886;DHT22;23726;52.520;13.434;2022-11-18T01:03:50;21.20;34.80
37886;DHT22;23726;52.520;13.434;2022-11-18T01:06:16;21.20;34.90
37886;DHT22;23726;52.520;13.434;2022-11-18T01:08:42;21.20;34.90
37886;DHT22;23726;52.520;13.434;2022-11-18T01:11:07;21.20;34.90
37886;DHT22;23726;52.520;13.434;2022-11-18T01:13:52;21.20;34.80
37886;DHT22;23726;52.520;13.434;2022-11-18T01:16:22;21.20;34.90
37886;DHT22;23726;52.520;13.434;2022-11-18T01:18:48;21.20;34.90
37886;DHT22;23726;52.520;13.434;2022-11-18T01:21:14;21.20;35.00
37886;DHT22;23726;52.520;13.434;2022-11-18T01:23:40;21.20;35.00
37886;DHT22;23726;52.520;13.434;2022-11-18T01:26:08;21.20;35.10
37886;DHT22;23726;52.520;13.434;2022-11-18T01:28:34;21.20;34.70
37886;DHT22;23726;52.520;13.434;2022-11-18T01:31:08;21.20;35.10
37886;DHT22;23726;52.520;13.434;2022-11-18T01:33:34;21.20;34.80
37886;DHT22;23726;52.520;13.434;2022-11-18T01:35:59;21.20;34.90
37886;DHT22;23726;52.520;13.434;2022-11-18T01:38:25;21.20;35.10
37886;DHT22;23726;52.520;13.434;2022-11-18T01:40:53;21.20;35.10
37886;DHT22;23726;52.520;13.434;2022-11-18T01:43:20;21.20;35.10
37886;DHT22;23726;52.520;13.434;2022-11-18T01:45:50;21.20;35.10
37886;DHT22;23726;52.520;13.434;2022-11-18T01:48:23;21.20;35.00
37886;DHT22;23726;52.520;13.434;2022-11-18T01:50:59;21.20;35.40
37886;DHT22;23726;52.520;13.434;2022-11-18T01:53:34;21.20;35.20
37886;DHT22;23726;52.520;13.434;2022-11-18T01:56:07;21.20;35.40
37886;DHT22;23726;52.520;13.434;2022-11-18T01:58:37;21.20;35.40
37886;DHT22;23726;52.520;13.434;2022-11-18T02:01:05;21.20;35.10
37886;DHT22;23726;52.520;13.434;2022-11-18T02:03:32;21.20;35.50
37886;DHT22;23726;52.520;13.434;2022-11-18T02:05:59;21.20;34.90
37886;DHT22;23726;52.520;13.434;2022-11-18T02:08:28;21.20;34.70
37886;DHT22;23726;52.520;13.434;2022-11-18T02:10:54;21.20;35.10
37886;DHT22;23726;52.520;13.434;2022-11-18T02:13:20;21.20;35.30
37886;DHT22;23726;52.520;13.434;2022-11-18T02:21:41;21.20;35.30
37886;DHT22;23726;52.520;13.434;2022-11-18T02:30:07;21.20;35.20
37886;DHT22;23726;52.520;13.434;2022-11-18T02:37:47;21.20;35.60
37886;DHT22;23726;52.520;13.434;2022-11-18T02:40:20;21.20;35.60
37886;DHT22;23726;52.520;13.434;2022-11-18T02:42:55;21.20;35.70
37886;DHT22;23726;52.520;13.434;2022-11-18T02:45:24;21.20;35.60
37886;DHT22;23726;52.520;13.434;2022-11-18T02:47:51;21.20;35.70
37886;DHT22;23726;52.520;13.434;2022-11-18T02:50:22;21.20;35.80
37886;DHT22;23726;52.520;13.434;2022-11-18T02:52:52;21.20;35.30
37886;DHT22;23726;52.520;13.434;2022-11-18T02:55:19;21.20;35.80
37886;DHT22;23726;52.520;13.434;2022-11-18T02:57:46;21.20;35.70
37886;DHT22;23726;52.520;13.434;2022-11-18T03:00:12;21.20;35.70
37886;DHT22;23726;52.520;13.434;2022-11-18T03:02:41;21.20;35.80
37886;DHT22;23726;52.520;13.434;2022-11-18T03:05:12;21.20;35.70
37886;DHT22;23726;52.520;13.434;2022-11-18T03:07:41;21.20;35.80
37886;DHT22;23726;52.520;13.434;2022-11-18T03:10:08;21.20;35.60
37886;DHT22;23726;52.520;13.434;2022-11-18T03:12:57;21.20;35.70
37886;DHT22;23726;52.520;13.434;2022-11-18T03:15:32;21.20;35.80
37886;DHT22;23726;52.520;13.434;2022-11-18T03:20:38;21.10;35.30
37886;DHT22;23726;52.520;13.434;2022-11-18T03:23:35;21.10;35.80
37886;DHT22;23726;52.520;13.434;2022-11-18T03:26:20;21.10;35.70
37886;DHT22;23726;52.520;13.434;2022-11-18T03:31:46;21.10;35.80
37886;DHT22;23726;52.520;13.434;2022-11-18T03:37:17;21.10;35.60
37886;DHT22;23726;52.520;13.434;2022-11-18T03:39:53;21.10;35.40
37886;DHT22;23726;52.520;13.434;2022-11-18T03:42:34;21.10;35.40
37886;DHT22;23726;52.520;13.434;2022-11-18T03:45:12;21.10;34.90
37886;DHT22;23726;52.520;13.434;2022-11-18T03:47:42;21.10;35.40
37886;DHT22;23726;52.520;13.434;2022-11-18T03:50:29;21.00;36.00
37886;DHT22;23726;52.520;13.434;2022-11-18T03:52:57;21.00;35.30
37886;DHT22;23726;52.520;13.434;2022-11-18T03:55:27;21.00;36.00
37886;DHT22;23726;52.520;13.434;2022-11-18T03:58:04;21.10;35.40
37886;DHT22;23726;52.520;13.434;2022-11-18T04:00:40;21.10;36.00
37886;DHT22;23726;52.520;13.434;2022-11-18T04:03:08;21.10;35.60
37886;DHT22;23726;52.520;13.434;2022-11-18T04:05:40;21.10;36.10
37886;DHT22;23726;52.520;13.434;2022-11-18T04:08:20;21.00;35.40
37886;DHT22;23726;52.520;13.434;2022-11-18T04:10:48;21.10;36.20
37886;DHT22;23726;52.520;13.434;2022-11-18T04:13:20;21.10;36.10
37886;DHT22;23726;52.520;13.434;2022-11-18T04:15:47;21.10;36.20
37886;DHT22;23726;52.520;13.434;2022-11-18T04:18:13;21.10;36.20
37886;DHT22;23726;52.520;13.434;2022-11-18T04:20:38;21.10;36.70
37886;DHT22;23726;52.520;13.434;2022-11-18T04:23:05;21.10;36.20
37886;DHT22;23726;52.520;13.434;2022-11-18T04:25:31;21.10;36.20
37886;DHT22;23726;52.520;13.434;2022-11-18T04:27:57;21.10;36.20
37886;DHT22;23726;52.520;13.434;2022-11-18T04:30:22;21.10;36.30
37886;DHT22;23726;52.520;13.434;2022-11-18T04:32:48;21.10;36.20
37886;DHT22;23726;52.520;13.434;2022-11-18T04:35:14;21.10;36.30
37886;DHT22;23726;52.520;13.434;2022-11-18T04:37:40;21.10;36.10
37886;DHT22;23726;52.520;13.434;2022-11-18T04:40:06;21.10;36.30
37886;DHT22;23726;52.520;13.434;2022-11-18T04:42:32;21.10;35.30
37886;DHT22;23726;52.520;13.434;2022-11-18T04:44:57;21.10;36.30
37886;DHT22;23726;52.520;13.434;2022-11-18T04:47:23;21.10;35.30
37886;DHT22;23726;52.520;13.434;2022-11-18T04:49:48;21.10;35.90
37886;DHT22;23726;52.520;13.434;2022-11-18T04:52:15;21.10;36.20
37886;DHT22;23726;52.520;13.434;2022-11-18T04:54:41;21.10;36.30
37886;DHT22;23726;52.520;13.434;2022-11-18T04:57:07;21.00;34.60
37886;DHT22;23726;52.520;13.434;2022-11-18T04:59:32;21.10;36.20
37886;DHT22;23726;52.520;13.434;2022-11-18T05:01:58;21.10;36.30
37886;DHT22;23726;52.520;13.434;2022-11-18T05:04:28;21.00;35.60
37886;DHT22;23726;52.520;13.434;2022-11-18T05:06:54;21.10;36.50
37886;DHT22;23726;52.520;13.434;2022-11-18T05:09:20;21.00;36.40
37886;DHT22;23726;52.520;13.434;2022-11-18T05:11:46;21.00;35.80
37886;DHT22;23726;52.520;13.434;2022-11-18T05:14:30;21.00;36.40
37886;DHT22;23726;52.520;13.434;2022-11-18T05:16:57;21.00;35.70
37886;DHT22;23726;52.520;13.434;2022-11-18T05:19:23;21.00;36.40
37886;DHT22;23726;52.520;13.434;2022-11-18T05:21:49;21.00;35.70
37886;DHT22;23726;52.520;13.434;2022-11-18T05:24:14;21.00;36.20
37886;DHT22;23726;52.520;13.434;2022-11-18T05:26:40;21.00;36.40
37886;DHT22;23726;52.520;13.434;2022-11-18T05:29:06;21.00;36.40
37886;DHT22;23726;52.520;13.434;2022-11-18T05:31:32;21.00;35.90
37886;DHT22;23726;52.520;13.434;2022-11-18T05:33:57;21.00;36.30
37886;DHT22;23726;52.520;13.434;2022-11-18T05:36:23;21.00;36.50
37886;DHT22;23726;52.520;13.434;2022-11-18T05:38:49;21.00;36.10
37886;DHT22;23726;52.520;13.434;2022-11-18T05:41:16;21.00;36.40
37886;DHT22;23726;52.520;13.434;2022-11-18T05:44:01;21.00;36.10
37886;DHT22;23726;52.520;13.434;2022-11-18T05:46:27;21.10;36.50
37886;DHT22;23726;52.520;13.434;2022-11-18T05:48:53;21.00;36.20
37886;DHT22;23726;52.520;13.434;2022-11-18T05:51:19;21.00;36.10
37886;DHT22;23726;52.520;13.434;2022-11-18T05:53:50;21.00;36.40
37886;DHT22;23726;52.520;13.434;2022-11-18T05:56:34;21.00;36.40
37886;DHT22;23726;52.520;13.434;2022-11-18T05:59:00;21.00;36.50
37886;DHT22;23726;52.520;13.434;2022-11-18T06:01:38;21.00;36.60
37886;DHT22;23726;52.520;13.434;2022-11-18T06:04:44;21.00;36.40
37886;DHT22;23726;52.520;13.434;2022-11-18T06:09:42;21.00;36.60
37886;DHT22;23726;52.520;13.434;2022-11-18T06:12:13;21.00;36.60
37886;DHT22;23726;52.520;13.434;2022-11-18T06:14:43;21.00;36.60
37886;DHT22;23726;52.520;13.434;2022-11-18T06:17:15;21.00;36.40
37886;DHT22;23726;52.520;13.434;2022-11-18T06:19:45;21.00;36.60
37886;DHT22;23726;52.520;13.434;2022-11-18T06:22:10;21.00;35.70
37886;DHT22;23726;52.520;13.434;2022-11-18T06:24:37;21.00;35.50
37886;DHT22;23726;52.520;13.434;2022-11-18T06:27:03;21.00;36.30
37886;DHT22;23726;52.520;13.434;2022-11-18T06:29:29;21.00;36.50
37886;DHT22;23726;52.520;13.434;2022-11-18T06:31:55;21.00;36.40
37886;DHT22;23726;52.520;13.434;2022-11-18T06:34:21;21.00;37.00
37886;DHT22;23726;52.520;13.434;2022-11-18T06:36:47;21.00;36.40
37886;DHT22;23726;52.520;13.434;2022-11-18T06:39:12;21.00;36.10
37886;DHT22;23726;52.520;13.434;2022-11-18T06:41:38;21.00;36.40
37886;DHT22;23726;52.520;13.434;2022-11-18T06:44:04;21.00;35.90
37886;DHT22;23726;52.520;13.434;2022-11-18T06:46:29;21.00;36.60
37886;DHT22;23726;52.520;13.434;2022-11-18T06:49:14;21.00;36.60
37886;DHT22;23726;52.520;13.434;2022-11-18T06:51:39;21.00;36.40
37886;DHT22;23726;52.520;13.434;2022-11-18T06:54:05;21.00;36.60
37886;DHT22;23726;52.520;13.434;2022-11-18T06:56:31;21.00;36.50
37886;DHT22;23726;52.520;13.434;2022-11-18T06:58:57;21.00;35.10
37886;DHT22;23726;52.520;13.434;2022-11-18T07:01:29;21.00;36.60
37886;DHT22;23726;52.520;13.434;2022-11-18T07:03:57;21.00;35.00
37886;DHT22;23726;52.520;13.434;2022-11-18T07:06:26;21.00;35.80
37886;DHT22;23726;52.520;13.434;2022-11-18T07:08:52;21.00;37.00
37886;DHT22;23726;52.520;13.434;2022-11-18T07:11:20;21.00;34.90
37886;DHT22;23726;52.520;13.434;2022-11-18T07:13:47;21.00;35.80
37886;DHT22;23726;52.520;13.434;2022-11-18T07:16:19;21.00;36.40
37886;DHT22;23726;52.520;13.434;2022-11-18T07:18:46;21.00;36.00
37886;DHT22;23726;52.520;13.434;2022-11-18T07:21:20;21.00;36.10
37886;DHT22;23726;52.520;13.434;2022-11-18T07:23:46;21.10;36.50
37886;DHT22;23726;52.520;13.434;2022-11-18T07:26:13;21.00;36.50
37886;DHT22;23726;52.520;13.434;2022-11-18T07:28:39;21.00;36.60
37886;DHT22;23726;52.520;13.434;2022-11-18T07:31:07;21.00;34.40
37886;DHT22;23726;52.520;13.434;2022-11-18T07:33:33;21.00;36.30
37886;DHT22;23726;52.520;13.434;2022-11-18T07:36:14;21.00;36.40
37886;DHT22;23726;52.520;13.434;2022-11-18T07:38:40;21.00;36.50
37886;DHT22;23726;52.520;13.434;2022-11-18T07:41:07;21.00;36.40
37886;DHT22;23726;52.520;13.434;2022-11-18T07:43:35;21.00;36.30
37886;DHT22;23726;52.520;13.434;2022-11-18T07:48:44;21.00;36.50
37886;DHT22;23726;52.520;13.434;2022-11-18T07:51:10;21.00;36.10
37886;DHT22;23726;52.520;13.434;2022-11-18T07:53:36;21.00;36.30
37886;DHT22;23726;52.520;13.434;2022-11-18T07:56:03;21.00;36.20
37886;DHT22;23726;52.520;13.434;2022-11-18T07:58:28;21.00;36.30
37886;DHT22;23726;52.520;13.434;2022-11-18T08:00:54;21.00;36.40
37886;DHT22;23726;52.520;13.434;2022-11-18T08:03:24;21.00;36.40
37886;DHT22;23726;52.520;13.434;2022-11-18T08:05:50;21.00;36.10
37886;DHT22;23726;52.520;13.434;2022-11-18T08:08:16;21.00;35.90
37886;DHT22;23726;52.520;13.434;2022-11-18T08:10:41;21.00;36.60
37886;DHT22;23726;52.520;13.434;2022-11-18T08:13:07;21.00;35.10
37886;DHT22;23726;52.520;13.434;2022-11-18T08:15:32;21.00;37.00
37886;DHT22;23726;52.520;13.434;2022-11-18T08:17:58;21.00;36.10
37886;DHT22;23726;52.520;13.434;2022-11-18T08:20:23;20.90;36.50
37886;DHT22;23726;52.520;13.434;2022-11-18T08:22:51;21.00;36.40
37886;DHT22;23726;52.520;13.434;2022-11-18T08:25:17;20.90;35.80
37886;DHT22;23726;52.520;13.434;2022-11-18T08:27:42;21.00;35.60
37886;DHT22;23726;52.520;13.434;2022-11-18T08:30:09;21.00;36.00
37886;DHT22;23726;52.520;13.434;2022-11-18T08:32:34;20.90;36.30
37886;DHT22;23726;52.520;13.434;2022-11-18T08:35:00;21.00;35.50
37886;DHT22;23726;52.520;13.434;2022-11-18T08:37:27;21.00;36.30
37886;DHT22;23726;52.520;13.434;2022-11-18T08:39:52;21.00;36.50
37886;DHT22;23726;52.520;13.434;2022-11-18T08:42:18;21.00;36.40
37886;DHT22;23726;52.520;13.434;2022-11-18T08:44:47;21.00;36.30
37886;DHT22;23726;52.520;13.434;2022-11-18T08:47:13;21.00;36.50
37886;DHT22;23726;52.520;13.434;2022-11-18T08:49:38;21.00;36.30
37886;DHT22;23726;52.520;13.434;2022-11-18T08:52:04;21.00;36.20
37886;DHT22;23726;52.520;13.434;2022-11-18T08:54:30;21.00;36.40
37886;DHT22;23726;52.520;13.434;2022-11-18T08:56:57;21.00;36.00
37886;DHT22;23726;52.520;13.434;2022-11-18T08:59:23;21.00;35.90
37886;DHT22;23726;52.520;13.434;2022-11-18T09:01:48;21.00;36.30
37886;DHT22;23726;52.520;13.434;2022-11-18T09:04:14;21.00;35.00
37886;DHT22;23726;52.520;13.434;2022-11-18T09:06:40;21.00;35.60
37886;DHT22;23726;52.520;13.434;2022-11-18T09:09:06;21.00;35.00
37886;DHT22;23726;52.520;13.434;2022-11-18T09:11:33;20.90;34.90
37886;DHT22;23726;52.520;13.434;2022-11-18T09:13:59;20.90;34.50
37886;DHT22;23726;52.520;13.434;2022-11-18T09:16:27;20.90;36.20
37886;DHT22;23726;52.520;13.434;2022-11-18T09:18:54;20.90;36.30
37886;DHT22;23726;52.520;13.434;2022-11-18T09:21:20;20.90;35.70
37886;DHT22;23726;52.520;13.434;2022-11-18T09:23:46;21.00;33.80
37886;DHT22;23726;52.520;13.434;2022-11-18T09:26:14;21.00;35.30
37886;DHT22;23726;52.520;13.434;2022-11-18T09:28:40;20.90;34.40
37886;DHT22;23726;52.520;13.434;2022-11-18T09:31:08;21.00;35.00
37886;DHT22;23726;52.520;13.434;2022-11-18T09:33:35;20.90;34.70
37886;DHT22;23726;52.520;13.434;2022-11-18T09:36:03;20.90;34.90
37886;DHT22;23726;52.520;13.434;2022-11-18T09:38:29;20.90;34.70
37886;DHT22;23726;52.520;13.434;2022-11-18T09:44:12;20.90;34.20
37886;DHT22;23726;52.520;13.434;2022-11-18T09:49:39;20.90;33.50
37886;DHT22;23726;52.520;13.434;2022-11-18T09:52:24;20.90;33.30
37886;DHT22;23726;52.520;13.434;2022-11-18T09:54:51;20.90;33.40
37886;DHT22;23726;52.520;13.434;2022-11-18T09:57:21;20.90;33.40
37886;DHT22;23726;52.520;13.434;2022-11-18T09:59:47;20.90;33.20
37886;DHT22;23726;52.520;13.434;2022-11-18T10:11:13;20.90;32.60
37886;DHT22;23726;52.520;13.434;2022-11-18T10:18:46;20.90;33.40
37886;DHT22;23726;52.520;13.434;2022-11-18T10:26:44;20.90;32.90
37886;DHT22;23726;52.520;13.434;2022-11-18T10:29:10;20.90;32.80
37886;DHT22;23726;52.520;13.434;2022-11-18T10:31:51;20.90;33.00
37886;DHT22;23726;52.520;13.434;2022-11-18T10:34:17;20.90;32.90
37886;DHT22;23726;52.520;13.434;2022-11-18T10:36:43;20.90;32.80
37886;DHT22;23726;52.520;13.434;2022-11-18T10:39:22;20.90;32.70
37886;DHT22;23726;52.520;13.434;2022-11-18T10:41:52;20.90;32.70
37886;DHT22;23726;52.520;13.434;2022-11-18T10:44:37;20.90;32.60
37886;DHT22;23726;52.520;13.434;2022-11-18T10:47:22;20.90;32.60
37886;DHT22;23726;52.520;13.434;2022-11-18T10:49:50;20.90;32.80
37886;DHT22;23726;52.520;13.434;2022-11-18T10:52:16;20.90;32.70
37886;DHT22;23726;52.520;13.434;2022-11-18T10:54:42;20.90;32.50
37886;DHT22;23726;52.520;13.434;2022-11-18T10:57:23;20.90;32.60
37886;DHT22;23726;52.520;13.434;2022-11-18T10:59:55;20.90;32.60
37886;DHT22;23726;52.520;13.434;2022-11-18T11:02:32;20.90;32.30
37886;DHT22;23726;52.520;13.434;2022-11-18T11:05:02;20.90;32.20
37886;DHT22;23726;52.520;13.434;2022-11-18T11:07:32;20.90;32.50
37886;DHT22;23726;52.520;13.434;2022-11-18T11:15:17;20.90;32.10
37886;DHT22;23726;52.520;13.434;2022-11-18T11:17:55;20.90;31.70
37886;DHT22;23726;52.520;13.434;2022-11-18T11:20:41;20.90;32.30
37886;DHT22;23726;52.520;13.434;2022-11-18T11:23:12;20.90;32.30
37886;DHT22;23726;52.520;13.434;2022-11-18T11:25:44;20.90;32.30
37886;DHT22;23726;52.520;13.434;2022-11-18T11:31:17;20.90;32.10
37886;DHT22;23726;52.520;13.434;2022-11-18T11:36:38;20.90;31.90
37886;DHT22;23726;52.520;13.434;2022-11-18T11:41:50;20.80;31.90
37886;DHT22;23726;52.520;13.434;2022-11-18T11:44:32;20.80;32.00
37886;DHT22;23726;52.520;13.434;2022-11-18T11:50:13;20.80;32.10
37886;DHT22;23726;52.520;13.434;2022-11-18T11:58:15;20.80;32.00
37886;DHT22;23726;52.520;13.434;2022-11-18T12:00:48;20.80;32.00
37886;DHT22;23726;52.520;13.434;2022-11-18T12:03:43;20.80;31.80
37886;DHT22;23726;52.520;13.434;2022-11-18T12:06:10;20.80;31.60
37886;DHT22;23726;52.520;13.434;2022-11-18T12:08:38;20.80;31.80
37886;DHT22;23726;52.520;13.434;2022-11-18T12:13:58;20.90;31.30
37886;DHT22;23726;52.520;13.434;2022-11-18T12:16:53;20.90;31.70
37886;DHT22;23726;52.520;13.434;2022-11-18T12:19:21;20.90;31.80
37886;DHT22;23726;52.520;13.434;2022-11-18T12:21:52;20.90;31.10
37886;DHT22;23726;52.520;13.434;2022-11-18T12:24:47;20.90;31.80
37886;DHT22;23726;52.520;13.434;2022-11-18T12:29:56;20.90;31.80
37886;DHT22;23726;52.520;13.434;2022-11-18T12:32:42;20.90;32.00
37886;DHT22;23726;52.520;13.434;2022-11-18T12:40:03;20.90;32.40
37886;DHT22;23726;52.520;13.434;2022-11-18T12:42:47;20.90;32.20
37886;DHT22;23726;52.520;13.434;2022-11-18T12:48:26;20.90;32.60
37886;DHT22;23726;52.520;13.434;2022-11-18T12:50:55;21.00;32.90
37886;DHT22;23726;52.520;13.434;2022-11-18T12:53:43;20.90;32.90
37886;DHT22;23726;52.520;13.434;2022-11-18T12:56:31;21.00;33.00
37886;DHT22;23726;52.520;13.434;2022-11-18T12:59:00;21.00;33.10
37886;DHT22;23726;52.520;13.434;2022-11-18T13:01:28;20.90;33.10
37886;DHT22;23726;52.520;13.434;2022-11-18T13:04:14;21.00;33.10
37886;DHT22;23726;52.520;13.434;2022-11-18T13:06:40;21.00;33.20
37886;DHT22;23726;52.520;13.434;2022-11-18T13:09:27;21.00;33.20
37886;DHT22;23726;52.520;13.434;2022-11-18T13:12:15;20.90;33.10
37886;DHT22;23726;52.520;13.434;2022-11-18T13:14:43;21.00;33.20
37886;DHT22;23726;52.520;13.434;2022-11-18T13:17:37;21.00;33.30
37886;DHT22;23726;52.520;13.434;2022-11-18T13:20:34;20.90;33.20
37886;DHT22;23726;52.520;13.434;2022-11-18T13:25:58;20.90;33.20
37886;DHT22;23726;52.520;13.434;2022-11-18T13:30:59;21.00;32.90
37886;DHT22;23726;52.520;13.434;2022-11-18T13:33:28;20.90;33.10
37886;DHT22;23726;52.520;13.434;2022-11-18T13:35:57;20.90;33.10
37886;DHT22;23726;52.520;13.434;2022-11-18T13:38:24;21.00;33.10
37886;DHT22;23726;52.520;13.434;2022-11-18T13:40:50;21.00;33.20
37886;DHT22;23726;52.520;13.434;2022-11-18T13:43:39;21.00;33.10
37886;DHT22;23726;52.520;13.434;2022-11-18T13:46:17;21.00;33.20
37886;DHT22;23726;52.520;13.434;2022-11-18T13:48:52;21.00;33.30
37886;DHT22;23726;52.520;13.434;2022-11-18T13:51:19;21.00;33.00
37886;DHT22;23726;52.520;13.434;2022-11-18T13:53:46;21.00;33.10
37886;DHT22;23726;52.520;13.434;2022-11-18T13:56:23;21.00;33.00
37886;DHT22;23726;52.520;13.434;2022-11-18T14:04:00;21.00;32.50
37886;DHT22;23726;52.520;13.434;2022-11-18T14:06:31;21.00;32.80
37886;DHT22;23726;52.520;13.434;2022-11-18T14:14:36;21.00;32.40
37886;DHT22;23726;52.520;13.434;2022-11-18T14:17:24;21.00;32.70
37886;DHT22;23726;52.520;13.434;2022-11-18T14:19:51;21.00;32.70
37886;DHT22;23726;52.520;13.434;2022-11-18T14:22:28;21.00;32.70
37886;DHT22;23726;52.520;13.434;2022-11-18T14:25:13;21.00;32.50
37886;DHT22;23726;52.520;13.434;2022-11-18T14:27:44;21.00;32.50
37886;DHT22;23726;52.520;13.434;2022-11-18T14:30:39;21.00;32.40
37886;DHT22;23726;52.520;13.434;2022-11-18T14:35:43;21.00;32.90
37886;DHT22;23726;52.520;13.434;2022-11-18T14:38:20;21.00;32.80
37886;DHT22;23726;52.520;13.434;2022-11-18T14:40:55;21.00;33.00
37886;DHT22;23726;52.520;13.434;2022-11-18T14:43:22;21.00;32.70
37886;DHT22;23726;52.520;13.434;2022-11-18T14:45:48;21.00;32.90
37886;DHT22;23726;52.520;13.434;2022-11-18T14:48:14;21.00;32.50
37886;DHT22;23726;52.520;13.434;2022-11-18T14:50:41;21.00;33.00
37886;DHT22;23726;52.520;13.434;2022-11-18T14:53:10;21.00;32.70
37886;DHT22;23726;52.520;13.434;2022-11-18T14:55:36;21.00;32.50
37886;DHT22;23726;52.520;13.434;2022-11-18T14:58:02;21.00;33.10
37886;DHT22;23726;52.520;13.434;2022-11-18T15:00:28;21.00;32.90
37886;DHT22;23726;52.520;13.434;2022-11-18T15:02:53;21.00;32.90
37886;DHT22;23726;52.520;13.434;2022-11-18T15:05:19;21.00;33.30
37886;DHT22;23726;52.520;13.434;2022-11-18T15:07:44;21.00;33.10
37886;DHT22;23726;52.520;13.434;2022-11-18T15:10:15;21.00;33.10
37886;DHT22;23726;52.520;13.434;2022-11-18T15:12:41;21.00;33.30
37886;DHT22;23726;52.520;13.434;2022-11-18T15:15:06;21.00;33.10
37886;DHT22;23726;52.520;13.434;2022-11-18T15:17:32;21.00;33.40
37886;DHT22;23726;52.520;13.434;2022-11-18T15:19:58;21.00;32.80
37886;DHT22;23726;52.520;13.434;2022-11-18T15:22:23;21.00;33.10
37886;DHT22;23726;52.520;13.434;2022-11-18T15:24:49;21.00;33.00
37886;DHT22;23726;52.520;13.434;2022-11-18T15:27:15;21.00;32.80
37886;DHT22;23726;52.520;13.434;2022-11-18T15:29:40;21.00;32.40
37886;DHT22;23726;52.520;13.434;2022-11-18T15:32:06;21.00;32.60
37886;DHT22;23726;52.520;13.434;2022-11-18T15:34:32;21.00;32.70
37886;DHT22;23726;52.520;13.434;2022-11-18T15:36:57;21.00;32.70
37886;DHT22;23726;52.520;13.434;2022-11-18T15:39:23;21.00;32.60
37886;DHT22;23726;52.520;13.434;2022-11-18T15:41:49;21.00;32.90
37886;DHT22;23726;52.520;13.434;2022-11-18T15:44:14;21.00;33.20
37886;DHT22;23726;52.520;13.434;2022-11-18T15:46:40;21.00;32.70
37886;DHT22;23726;52.520;13.434;2022-11-18T15:49:05;21.00;32.60
37886;DHT22;23726;52.520;13.434;2022-11-18T15:51:31;21.00;33.00
37886;DHT22;23726;52.520;13.434;2022-11-18T15:53:58;21.00;32.80
37886;DHT22;23726;52.520;13.434;2022-11-18T15:56:28;21.00;32.30
37886;DHT22;23726;52.520;13.434;2022-11-18T15:58:59;21.00;32.60
37886;DHT22;23726;52.520;13.434;2022-11-18T16:01:33;21.00;32.50
37886;DHT22;23726;52.520;13.434;2022-11-18T16:04:04;21.00;32.80
37886;DHT22;23726;52.520;13.434;2022-11-18T16:06:30;21.00;32.70
37886;DHT22;23726;52.520;13.434;2022-11-18T16:08:56;21.00;32.60
37886;DHT22;23726;52.520;13.434;2022-11-18T16:11:22;21.00;32.30
37886;DHT22;23726;52.520;13.434;2022-11-18T16:14:09;21.00;33.00
37886;DHT22;23726;52.520;13.434;2022-11-18T16:16:36;21.00;33.00
37886;DHT22;23726;52.520;13.434;2022-11-18T16:19:04;21.00;33.00
37886;DHT22;23726;52.520;13.434;2022-11-18T16:21:36;21.00;32.80
37886;DHT22;23726;52.520;13.434;2022-11-18T16:24:03;21.00;32.70
37886;DHT22;23726;52.520;13.434;2022-11-18T16:26:29;21.00;33.20
37886;DHT22;23726;52.520;13.434;2022-11-18T16:28:56;21.00;33.00
37886;DHT22;23726;52.520;13.434;2022-11-18T16:31:21;21.00;33.00
37886;DHT22;23726;52.520;13.434;2022-11-18T16:36:31;21.00;33.00
37886;DHT22;23726;52.520;13.434;2022-11-18T16:38:56;21.10;33.20
37886;DHT22;23726;52.520;13.434;2022-11-18T16:41:22;21.00;33.00
37886;DHT22;23726;52.520;13.434;2022-11-18T16:44:01;21.10;33.20
37886;DHT22;23726;52.520;13.434;2022-11-18T16:46:29;21.10;33.80
37886;DHT22;23726;52.520;13.434;2022-11-18T16:48:55;21.10;33.20
37886;DHT22;23726;52.520;13.434;2022-11-18T16:51:23;21.10;33.50
37886;DHT22;23726;52.520;13.434;2022-11-18T16:53:53;21.10;33.60
37886;DHT22;23726;52.520;13.434;2022-11-18T16:56:21;21.10;33.60
37886;DHT22;23726;52.520;13.434;2022-11-18T16:58:47;21.10;33.80
37886;DHT22;23726;52.520;13.434;2022-11-18T17:01:13;21.10;33.50
37886;DHT22;23726;52.520;13.434;2022-11-18T17:03:39;21.10;33.50
37886;DHT22;23726;52.520;13.434;2022-11-18T17:06:05;21.10;33.40
37886;DHT22;23726;52.520;13.434;2022-11-18T17:08:35;21.10;33.50
37886;DHT22;23726;52.520;13.434;2022-11-18T17:11:08;21.10;33.70
37886;DHT22;23726;52.520;13.434;2022-11-18T17:13:38;21.10;33.50
37886;DHT22;23726;52.520;13.434;2022-11-18T17:16:12;21.10;33.80
37886;DHT22;23726;52.520;13.434;2022-11-18T17:18:39;21.10;33.80
37886;DHT22;23726;52.520;13.434;2022-11-18T17:21:09;21.10;34.00
37886;DHT22;23726;52.520;13.434;2022-11-18T17:23:39;21.10;33.70
37886;DHT22;23726;52.520;13.434;2022-11-18T17:26:06;21.10;33.70
37886;DHT22;23726;52.520;13.434;2022-11-18T17:28:34;21.10;33.30